Chahbahar, Iran
Current Conditions -  °F | °C
As of 3:00 PM on Friday 19 Dec 2014 (Local Time) from OIZI Reporting Station
Clear Clear  
Wind Chill: 75°   Ceiling: Unl
Heat Index: 75°   Visibility: 6mi
Dew Point: 25°   Wind: 12mph
Humidity: 15%   Direction: 230°SW
Pressure: 30.15"   Gusts: NA
Location:  25.28°N, 60.62°E
Report Text: OIZI 191200Z 23010KT CAVOK 24/M04 Q1021
Loading
Personal Weather Stations






























Interactive Weather Map New forecast layout! Learn more

10-Day Weather Forecast

Advertisements
Track Severe Weather on mobile